Pagrindinis puslapis
METAR-TAF:

METAR-TAF

Oro uostai :

Surathanis, Tailandas

platuma: 09-07N, ilguma: 099-21E, Aukštis: 10 m

Dabartinis oras

Ataskaita buvo paskelbta 1 valandą ir 16 minutes, ne 04:00 UTC
Vėjas 6 kt iš Pietų/Pietvakarių, svyruoja nuo Pietų/Pietryčių ir Pietvakarių
Temperatūra 29°C
Drėgmė 84%
Slėgis 1010 hPa
Matomumas 10 km arba daugiau
Mažai debesys ne aukštis 2000 ft

METAR: VTSB 140400Z 20006KT 160V230 9999 FEW020 29/26 Q1010

Laikas: 12:16 (05:16 UTC)

Prognozė

Ataskaita buvo paskelbta 6 valandos ir 16 minutes, ne 23:00 UTC
Prognozė galioja nuo 14 metu 00 UTC su 14 metu 24 UTC
Vėjas 8 kt iš Pietvakarių
Matomumas: 5000 m
Mažai debesys ne aukštis 2000 ft
Išsisklaidę debesys ne aukštis 10000 ft
rūkana
Tapsmas
nuo 14 metu 00 UTC su 14 metu 02 UTC
Matomumas 10 km arba daugiau

TAF: VTSB 132300Z 1400/1424 22008KT 5000 BR FEW020 SCT100 BECMG 1400/1402 9999 NSW

Orai ataskaitas ir orų prognozės (METAR, TAF).

turimą stotys yra geltonos ir raudonos taškus žemėlapyje.

Perkelti pele per norėdami pamatyti stoties vardą.

Tada spustelėkite, norėdami matyti oro stebėjimo ir prognozės.

Norėdami pakeisti žemėlapį: spustelėkite ant žalios mygtukų su juodo kryžiaus žemyn,; žalią mygtuką su brūkšneliu, jei norite nutolinti; arba žalių rodyklių gretimoms žemėlapius.


METAR-TAF: